Bettina K — PBEW — position and weather

sailwx.info

Track history (hours):
 
Tides and Currents Weather Stations Pressure Air Temp Water Temp Dewpoint Dewpoint Depression Visibility Wind Speed Wind Dir Waves Ship Positions

Bettina K

Last reported at 2017-Feb-23 15:32 UTC. Time now 2017-Feb-23 16:17 UTC.
Position N 56°09' E 014°49'.

Length 82 m; draft 3.4 m.

Type: Cargo ship. MMSI: 244730469.

Date/timePositionNaut miles runAvg speedWind from/ knotsBaromVisibWave heightAir tempDewpointWater temp
2017-Feb-23 15:32N 56°09' E 014°49'0 0.0
2017-Feb-23 14:32N 56°09' E 014°49'0 0.0
2017-Feb-23 13:32N 56°09' E 014°49'0 0.0
2017-Feb-23 12:29N 56°09' E 014°49'0 0.0
2017-Feb-23 11:32N 56°09' E 014°49'0 0.0
2017-Feb-23 10:32N 56°09' E 014°49'0 0.0
2017-Feb-23 09:32N 56°09' E 014°49'0 0.0
2017-Feb-23 08:08N 56°09' E 014°49'0 0.0
2017-Feb-23 07:32N 56°09' E 014°49'0 0.0
2017-Feb-23 06:14N 56°09' E 014°49'0 0.0
2017-Feb-23 05:32N 56°09' E 014°49'0 0.0
2017-Feb-23 04:32N 56°09' E 014°49'0 0.0
2017-Feb-23 03:32N 56°09' E 014°49'0 0.0
2017-Feb-23 02:32N 56°09' E 014°49'0 0.0
2017-Feb-23 01:29N 56°09' E 014°49'0 0.0
2017-Feb-23 00:32N 56°09' E 014°49'0 0.0
2017-Feb-22 23:29N 56°09' E 014°49'0 0.0
2017-Feb-22 22:29N 56°09' E 014°49'0 0.0
2017-Feb-22 21:32N 56°09' E 014°49'0 0.0
2017-Feb-22 20:32N 56°09' E 014°49'0 0.0
2017-Feb-22 19:32N 56°09' E 014°49'0 0.0
2017-Feb-22 18:32N 56°09' E 014°49'0 0.0
2017-Feb-22 17:17N 56°09' E 014°49'0 0.0
2017-Feb-22 16:26N 56°09' E 014°49'0 0.0
2017-Feb-22 15:32N 56°09' E 014°49'0 0.0
2017-Feb-22 14:26N 56°09' E 014°49'0 0.0
2017-Feb-22 13:23N 56°09' E 014°49'0 0.0
2017-Feb-22 12:32N 56°09' E 014°49'0 0.0
2017-Feb-22 11:32N 56°09' E 014°49'0 0.0
2017-Feb-22 10:32N 56°09' E 014°49'0 0.0
2017-Feb-22 09:32N 56°09' E 014°49'0 0.0
2017-Feb-22 06:20N 56°09' E 014°49'0 0.0
2017-Feb-22 05:29N 56°09' E 014°49'0 0.0
2017-Feb-22 04:32N 56°09' E 014°49'0 0.0
2017-Feb-22 03:32N 56°09' E 014°49'0 0.0
2017-Feb-22 02:32N 56°09' E 014°49'0 0.0
2017-Feb-22 01:32N 56°09' E 014°49'0 0.0
2017-Feb-22 00:29N 56°09' E 014°49'0 0.0
2017-Feb-21 23:32N 56°09' E 014°49'0 0.0
2017-Feb-21 22:32N 56°09' E 014°49'0 0.0
2017-Feb-21 21:32N 56°09' E 014°49'0 0.0
2017-Feb-21 20:29N 56°09' E 014°49'0 0.0
2017-Feb-21 19:29N 56°09' E 014°49'0 0.3
2017-Feb-21 18:33N 56°09' E 014°49'9 9.3
2017-Feb-21 17:34N 55°60' E 014°48'7 0.6
2017-Feb-21 05:33N 56°02' E 014°35'14 7.1
2017-Feb-21 03:33N 55°48' E 014°39'8 7.6
2017-Feb-21 02:31N 55°40' E 014°39'7 7.5
2017-Feb-21 01:33N 55°33' E 014°40'8 8.0
2017-Feb-21 00:34N 55°25' E 014°38'9 9.3
2017-Feb-20 23:33N 55°17' E 014°29'9 9.3
2017-Feb-20 22:33N 55°10' E 014°18'9 8.9
2017-Feb-20 21:33N 55°03' E 014°09'4110.1
2017-Feb-20 17:31N 54°48' E 013°03'1111.1
2017-Feb-20 16:33N 54°44' E 012°46'1111.0
2017-Feb-20 15:31N 54°37' E 012°30'1411.1
2017-Feb-20 14:13N 54°26' E 012°13'710.7
2017-Feb-20 13:34N 54°25' E 012°02'2311.5
2017-Feb-20 11:33N 54°31' E 011°24'1312.6
2017-Feb-20 10:33N 54°35' E 011°03'70 7.0
2017-Feb-20 00:33N 54°01' E 009°18'5 5.0
2017-Feb-19 23:33N 53°57' E 009°14'4 4.3
2017-Feb-19 22:33N 53°54' E 009°09'5 5.5
2017-Feb-19 21:33N 53°51' E 009°00'8 8.2
2017-Feb-19 20:33N 53°51' E 008°47'9 8.8
2017-Feb-19 19:33N 53°57' E 008°37'9 9.4
2017-Feb-19 18:33N 53°59' E 008°21'10 9.9
2017-Feb-19 17:33N 53°58' E 008°05'13710.4
2017-Feb-19 04:24N 53°08' E 004°30'9 9.6
2017-Feb-19 03:31N 53°00' E 004°22'10 9.6
2017-Feb-19 02:28N 52°51' E 004°16'10 9.6
2017-Feb-19 01:28N 52°44' E 004°06'9 9.8
2017-Feb-19 00:33N 52°36' E 003°59'10 9.9
2017-Feb-18 23:33N 52°26' E 003°54'1110.5
2017-Feb-18 22:33N 52°16' E 003°52'1110.9
2017-Feb-18 21:33N 52°05' E 003°57'1110.5
2017-Feb-18 20:33N 51°58' E 004°08'5 5.4
2017-Feb-18 19:33N 51°54' E 004°14'0 0.0
2017-Feb-18 18:33N 51°54' E 004°14'0 0.0
2017-Feb-18 17:33N 51°54' E 004°14'0 0.0
2017-Feb-18 16:33N 51°54' E 004°14'0 0.0
2017-Feb-18 15:33N 51°54' E 004°14'0 0.0
2017-Feb-18 14:33N 51°54' E 004°14'0 0.0
2017-Feb-18 13:33N 51°54' E 004°14'0 0.0
2017-Feb-18 12:33N 51°54' E 004°14'0 0.0
2017-Feb-18 11:33N 51°54' E 004°14'0 0.0
2017-Feb-18 10:33N 51°54' E 004°14'0 0.0
2017-Feb-18 09:33N 51°54' E 004°14'0 0.0
2017-Feb-18 08:33N 51°54' E 004°14'0 0.0
2017-Feb-18 07:33N 51°54' E 004°14'0 0.0
2017-Feb-18 06:33N 51°54' E 004°14'0 0.0
2017-Feb-18 05:33N 51°54' E 004°14'0 0.0
2017-Feb-18 04:33N 51°54' E 004°14'0 0.0
2017-Feb-18 03:30N 51°54' E 004°14'0 0.0
2017-Feb-18 02:33N 51°54' E 004°14'0 0.0
2017-Feb-18 01:33N 51°54' E 004°14'0 0.0
2017-Feb-18 00:33N 51°54' E 004°14'0 0.0
2017-Feb-17 23:33N 51°54' E 004°14'0 0.0
2017-Feb-17 22:33N 51°54' E 004°14'0 0.0
2017-Feb-17 21:32N 51°54' E 004°14'0 0.0
2017-Feb-17 20:32N 51°54' E 004°14'0 0.0
2017-Feb-17 19:32N 51°54' E 004°14'1 0.7
2017-Feb-17 18:33N 51°54' E 004°14'10 9.8
2017-Feb-17 17:33N 51°60' E 004°01'8910.6
2017-Feb-17 09:06N 52°52' E 002°01'610.7
2017-Feb-17 08:33N 52°55' E 001°54'1010.1
2017-Feb-17 07:33N 53°01' E 001°40'9 9.4
2017-Feb-17 06:33N 53°07' E 001°28'9 9.0
2017-Feb-17 05:33N 53°13' E 001°16'41 9.3
2017-Feb-17 01:07N 53°32' E 000°15'611.4
2017-Feb-17 00:33N 53°34' E 000°05'1313.2
2017-Feb-16 23:34N 53°42' W 000°13'  
2017-Feb-14 07:24N 53°42' W 000°27'7 7.9
2017-Feb-14 06:33N 53°44' W 000°16'1110.7
2017-Feb-14 05:33N 53°36' W 000°03'  
Track history (hours):
 
Tides and Currents Weather Stations Pressure Air Temp Water Temp Dewpoint Dewpoint Depression Visibility Wind Speed Wind Dir Waves Ship Positions

Bettina K

Last reported at 2017-Feb-23 15:32 UTC. Time now 2017-Feb-23 16:17 UTC.
Position N 56°09' E 014°49'.

Length 82 m; draft 3.4 m.

Type: Cargo ship. MMSI: 244730469.

Date/timePositionNaut miles runAvg speedWind from/ knotsBaromVisibWave heightAir tempDewpointWater temp
2017-Feb-23 15:32N 56°09' E 014°49'0 0.0
2017-Feb-23 14:32N 56°09' E 014°49'0 0.0
2017-Feb-23 13:32N 56°09' E 014°49'0 0.0
2017-Feb-23 12:29N 56°09' E 014°49'0 0.0
2017-Feb-23 11:32N 56°09' E 014°49'0 0.0
2017-Feb-23 10:32N 56°09' E 014°49'0 0.0
2017-Feb-23 09:32N 56°09' E 014°49'0 0.0
2017-Feb-23 08:08N 56°09' E 014°49'0 0.0
2017-Feb-23 07:32N 56°09' E 014°49'0 0.0
2017-Feb-23 06:14N 56°09' E 014°49'0 0.0
2017-Feb-23 05:32N 56°09' E 014°49'0 0.0
2017-Feb-23 04:32N 56°09' E 014°49'0 0.0
2017-Feb-23 03:32N 56°09' E 014°49'0 0.0
2017-Feb-23 02:32N 56°09' E 014°49'0 0.0
2017-Feb-23 01:29N 56°09' E 014°49'0 0.0
2017-Feb-23 00:32N 56°09' E 014°49'0 0.0
2017-Feb-22 23:29N 56°09' E 014°49'0 0.0
2017-Feb-22 22:29N 56°09' E 014°49'0 0.0
2017-Feb-22 21:32N 56°09' E 014°49'0 0.0
2017-Feb-22 20:32N 56°09' E 014°49'0 0.0
2017-Feb-22 19:32N 56°09' E 014°49'0 0.0
2017-Feb-22 18:32N 56°09' E 014°49'0 0.0
2017-Feb-22 17:17N 56°09' E 014°49'0 0.0
2017-Feb-22 16:26N 56°09' E 014°49'0 0.0
2017-Feb-22 15:32N 56°09' E 014°49'0 0.0
2017-Feb-22 14:26N 56°09' E 014°49'0 0.0
2017-Feb-22 13:23N 56°09' E 014°49'0 0.0
2017-Feb-22 12:32N 56°09' E 014°49'0 0.0
2017-Feb-22 11:32N 56°09' E 014°49'0 0.0
2017-Feb-22 10:32N 56°09' E 014°49'0 0.0
2017-Feb-22 09:32N 56°09' E 014°49'0 0.0
2017-Feb-22 06:20N 56°09' E 014°49'0 0.0
2017-Feb-22 05:29N 56°09' E 014°49'0 0.0
2017-Feb-22 04:32N 56°09' E 014°49'0 0.0
2017-Feb-22 03:32N 56°09' E 014°49'0 0.0
2017-Feb-22 02:32N 56°09' E 014°49'0 0.0
2017-Feb-22 01:32N 56°09' E 014°49'0 0.0
2017-Feb-22 00:29N 56°09' E 014°49'0 0.0
2017-Feb-21 23:32N 56°09' E 014°49'0 0.0
2017-Feb-21 22:32N 56°09' E 014°49'0 0.0
2017-Feb-21 21:32N 56°09' E 014°49'0 0.0
2017-Feb-21 20:29N 56°09' E 014°49'0 0.0
2017-Feb-21 19:29N 56°09' E 014°49'0 0.3
2017-Feb-21 18:33N 56°09' E 014°49'9 9.3
2017-Feb-21 17:34N 55°60' E 014°48'7 0.6
2017-Feb-21 05:33N 56°02' E 014°35'14 7.1
2017-Feb-21 03:33N 55°48' E 014°39'8 7.6
2017-Feb-21 02:31N 55°40' E 014°39'7 7.5
2017-Feb-21 01:33N 55°33' E 014°40'8 8.0
2017-Feb-21 00:34N 55°25' E 014°38'9 9.3
2017-Feb-20 23:33N 55°17' E 014°29'9 9.3
2017-Feb-20 22:33N 55°10' E 014°18'9 8.9
2017-Feb-20 21:33N 55°03' E 014°09'4110.1
2017-Feb-20 17:31N 54°48' E 013°03'1111.1
2017-Feb-20 16:33N 54°44' E 012°46'1111.0
2017-Feb-20 15:31N 54°37' E 012°30'1411.1
2017-Feb-20 14:13N 54°26' E 012°13'710.7
2017-Feb-20 13:34N 54°25' E 012°02'2311.5
2017-Feb-20 11:33N 54°31' E 011°24'1312.6
2017-Feb-20 10:33N 54°35' E 011°03'70 7.0
2017-Feb-20 00:33N 54°01' E 009°18'5 5.0
2017-Feb-19 23:33N 53°57' E 009°14'4 4.3
2017-Feb-19 22:33N 53°54' E 009°09'5 5.5
2017-Feb-19 21:33N 53°51' E 009°00'8 8.2
2017-Feb-19 20:33N 53°51' E 008°47'9 8.8
2017-Feb-19 19:33N 53°57' E 008°37'9 9.4
2017-Feb-19 18:33N 53°59' E 008°21'10 9.9
2017-Feb-19 17:33N 53°58' E 008°05'13710.4
2017-Feb-19 04:24N 53°08' E 004°30'9 9.6
2017-Feb-19 03:31N 53°00' E 004°22'10 9.6
2017-Feb-19 02:28N 52°51' E 004°16'10 9.6
2017-Feb-19 01:28N 52°44' E 004°06'9 9.8
2017-Feb-19 00:33N 52°36' E 003°59'10 9.9
2017-Feb-18 23:33N 52°26' E 003°54'1110.5
2017-Feb-18 22:33N 52°16' E 003°52'1110.9
2017-Feb-18 21:33N 52°05' E 003°57'1110.5
2017-Feb-18 20:33N 51°58' E 004°08'5 5.4
2017-Feb-18 19:33N 51°54' E 004°14'0 0.0
2017-Feb-18 18:33N 51°54' E 004°14'0 0.0
2017-Feb-18 17:33N 51°54' E 004°14'0 0.0
2017-Feb-18 16:33N 51°54' E 004°14'0 0.0
2017-Feb-18 15:33N 51°54' E 004°14'0 0.0
2017-Feb-18 14:33N 51°54' E 004°14'0 0.0
2017-Feb-18 13:33N 51°54' E 004°14'0 0.0
2017-Feb-18 12:33N 51°54' E 004°14'0 0.0
2017-Feb-18 11:33N 51°54' E 004°14'0 0.0
2017-Feb-18 10:33N 51°54' E 004°14'0 0.0
2017-Feb-18 09:33N 51°54' E 004°14'0 0.0
2017-Feb-18 08:33N 51°54' E 004°14'0 0.0
2017-Feb-18 07:33N 51°54' E 004°14'0 0.0
2017-Feb-18 06:33N 51°54' E 004°14'0 0.0
2017-Feb-18 05:33N 51°54' E 004°14'0 0.0
2017-Feb-18 04:33N 51°54' E 004°14'0 0.0
2017-Feb-18 03:30N 51°54' E 004°14'0 0.0
2017-Feb-18 02:33N 51°54' E 004°14'0 0.0
2017-Feb-18 01:33N 51°54' E 004°14'0 0.0
2017-Feb-18 00:33N 51°54' E 004°14'0 0.0
2017-Feb-17 23:33N 51°54' E 004°14'0 0.0
2017-Feb-17 22:33N 51°54' E 004°14'0 0.0
2017-Feb-17 21:32N 51°54' E 004°14'0 0.0
2017-Feb-17 20:32N 51°54' E 004°14'0 0.0
2017-Feb-17 19:32N 51°54' E 004°14'1 0.7
2017-Feb-17 18:33N 51°54' E 004°14'10 9.8
2017-Feb-17 17:33N 51°60' E 004°01'8910.6
2017-Feb-17 09:06N 52°52' E 002°01'610.7
2017-Feb-17 08:33N 52°55' E 001°54'1010.1
2017-Feb-17 07:33N 53°01' E 001°40'9 9.4
2017-Feb-17 06:33N 53°07' E 001°28'9 9.0
2017-Feb-17 05:33N 53°13' E 001°16'41 9.3
2017-Feb-17 01:07N 53°32' E 000°15'611.4
2017-Feb-17 00:33N 53°34' E 000°05'1313.2
2017-Feb-16 23:34N 53°42' W 000°13'  
2017-Feb-14 07:24N 53°42' W 000°27'7 7.9
2017-Feb-14 06:33N 53°44' W 000°16'1110.7
2017-Feb-14 05:33N 53°36' W 000°03'  

Dump ship's entire track history